createdAt,value
2023-10-18T00:00:34.418Z,7.50
2023-10-18T00:03:02.941Z,7.50
2023-10-18T00:05:30.719Z,7.40
2023-10-18T00:07:58.700Z,7.50
2023-10-18T00:10:31.722Z,7.50
2023-10-18T00:13:00.479Z,7.40
2023-10-18T00:15:28.103Z,7.50
2023-10-18T00:17:56.811Z,7.50
2023-10-18T00:20:27.254Z,7.50
2023-10-18T00:22:55.314Z,7.50
2023-10-18T00:25:22.885Z,7.50
2023-10-18T00:27:51.586Z,7.50
2023-10-18T00:30:22.478Z,7.50
2023-10-18T00:32:50.222Z,7.50
2023-10-18T00:35:20.478Z,7.50
2023-10-18T00:37:49.020Z,7.50
2023-10-18T00:40:22.625Z,7.50
2023-10-18T00:42:54.509Z,7.50
2023-10-18T00:45:23.910Z,7.50
2023-10-18T00:47:51.530Z,7.60
2023-10-18T00:50:28.953Z,7.50
2023-10-18T00:52:56.573Z,7.50
2023-10-18T00:55:24.361Z,7.50
2023-10-18T00:57:53.447Z,7.50
2023-10-18T01:00:21.172Z,7.50
2023-10-18T01:02:50.965Z,7.50
2023-10-18T01:05:18.409Z,7.50
2023-10-18T01:07:48.104Z,7.50
2023-10-18T01:10:16.165Z,7.50
2023-10-18T01:12:46.269Z,7.50
2023-10-18T01:15:20.848Z,7.50
2023-10-18T01:17:49.461Z,7.50
2023-10-18T01:20:39.361Z,7.50
2023-10-18T01:23:08.705Z,7.50
2023-10-18T01:25:37.562Z,7.50
2023-10-18T01:28:09.287Z,7.50
2023-10-18T01:30:36.483Z,7.50
2023-10-18T01:33:05.864Z,7.50
2023-10-18T01:35:33.377Z,7.50
2023-10-18T01:38:02.635Z,7.40
2023-10-18T01:40:29.731Z,7.50
2023-10-18T01:42:58.555Z,7.50
2023-10-18T01:45:30.505Z,7.50
2023-10-18T01:47:58.453Z,7.50
2023-10-18T01:50:25.598Z,7.50
2023-10-18T01:52:52.708Z,7.50
2023-10-18T01:55:20.007Z,7.50
2023-10-18T01:57:49.584Z,7.50
2023-10-18T02:00:35.562Z,7.50
2023-10-18T02:03:03.827Z,7.50
2023-10-18T02:05:32.093Z,7.50
2023-10-18T02:07:59.634Z,7.50
2023-10-18T02:10:29.453Z,7.40
2023-10-18T02:12:59.290Z,7.40
2023-10-18T02:15:27.965Z,7.40
2023-10-18T02:17:58.601Z,7.40
2023-10-18T02:20:29.107Z,7.40
2023-10-18T02:23:00.993Z,7.40
2023-10-18T02:25:43.706Z,7.40
2023-10-18T02:28:24.256Z,7.40
2023-10-18T02:30:57.482Z,7.30
2023-10-18T02:33:31.652Z,7.40
2023-10-18T02:35:59.511Z,7.30
2023-10-18T02:38:27.342Z,7.30
2023-10-18T02:40:58.098Z,7.30
2023-10-18T02:43:25.563Z,7.30
2023-10-18T02:45:54.862Z,7.30
2023-10-18T02:48:25.648Z,7.30
2023-10-18T02:50:59.193Z,7.30
2023-10-18T02:53:26.728Z,7.30
2023-10-18T02:55:56.846Z,7.30
2023-10-18T02:58:29.457Z,7.30
2023-10-18T03:01:07.280Z,7.30
2023-10-18T03:03:34.963Z,7.30
2023-10-18T03:06:28.855Z,7.30
2023-10-18T03:08:59.742Z,7.30
2023-10-18T03:11:27.377Z,7.30
2023-10-18T03:13:58.703Z,7.40
2023-10-18T03:16:40.781Z,7.40
2023-10-18T03:19:13.117Z,7.30
2023-10-18T03:21:42.402Z,7.30
2023-10-18T03:24:10.555Z,7.30
2023-10-18T03:26:38.636Z,7.30
2023-10-18T03:29:32.126Z,7.30
2023-10-18T03:32:01.283Z,7.40
2023-10-18T03:34:30.256Z,7.40
2023-10-18T03:36:57.443Z,7.30
2023-10-18T03:39:29.187Z,7.30
2023-10-18T03:41:59.825Z,7.30
2023-10-18T03:44:28.532Z,7.30
2023-10-18T03:47:04.989Z,7.30
2023-10-18T03:49:43.703Z,7.30
2023-10-18T03:52:13.678Z,7.30
2023-10-18T03:55:10.412Z,7.30
2023-10-18T03:57:40.904Z,7.30
2023-10-18T04:00:24.679Z,7.30
2023-10-18T04:02:54.559Z,7.30
2023-10-18T04:05:41.652Z,7.30
2023-10-18T04:08:09.195Z,7.30
2023-10-18T04:10:38.859Z,7.30
2023-10-18T04:13:14.565Z,7.30
2023-10-18T04:15:51.986Z,7.30
2023-10-18T04:18:27.757Z,7.30
2023-10-18T04:21:03.452Z,7.30
2023-10-18T04:23:30.618Z,7.30
2023-10-18T04:26:02.349Z,7.30
2023-10-18T04:28:50.041Z,7.30
2023-10-18T04:31:23.378Z,7.40
2023-10-18T04:33:51.650Z,7.30
2023-10-18T04:36:22.828Z,7.30
2023-10-18T04:38:51.023Z,7.30
2023-10-18T04:41:26.072Z,7.30
2023-10-18T04:43:58.136Z,7.30
2023-10-18T04:46:29.894Z,7.30
2023-10-18T04:49:00.308Z,7.30
2023-10-18T04:51:50.300Z,7.30
2023-10-18T04:54:18.285Z,7.30
2023-10-18T04:56:47.101Z,7.30
2023-10-18T04:59:31.498Z,7.30
2023-10-18T05:01:59.122Z,7.40
2023-10-18T05:04:36.330Z,7.40
2023-10-18T05:07:15.757Z,7.40
2023-10-18T05:09:45.092Z,7.40
2023-10-18T05:12:22.902Z,7.40
2023-10-18T05:15:09.814Z,7.40
2023-10-18T05:17:51.338Z,7.40
2023-10-18T05:20:21.929Z,7.40
2023-10-18T05:22:54.288Z,7.40
2023-10-18T05:25:21.713Z,7.40
2023-10-18T05:28:10.963Z,7.40
2023-10-18T05:30:58.202Z,7.40
2023-10-18T05:33:40.383Z,7.40
2023-10-18T05:36:18.050Z,7.40
2023-10-18T05:38:46.601Z,7.40
2023-10-18T05:41:39.765Z,7.40
2023-10-18T05:44:07.964Z,7.40
2023-10-18T05:46:35.835Z,7.40
2023-10-18T05:49:03.167Z,7.50
2023-10-18T05:51:39.787Z,7.50
2023-10-18T05:54:08.788Z,7.50
2023-10-18T05:56:36.241Z,7.50
2023-10-18T05:59:23.160Z,7.40
2023-10-18T06:01:51.680Z,7.50
2023-10-18T06:04:25.934Z,7.50
2023-10-18T06:06:53.430Z,7.40
2023-10-18T06:09:28.524Z,7.50
2023-10-18T06:11:56.386Z,7.40
2023-10-18T06:14:26.680Z,7.40
2023-10-18T06:17:07.727Z,7.40
2023-10-18T06:19:39.228Z,7.40
2023-10-18T06:22:17.148Z,7.40
2023-10-18T06:24:50.154Z,7.40
2023-10-18T06:27:17.602Z,7.40
2023-10-18T06:29:46.310Z,7.40
2023-10-18T06:32:17.083Z,7.40
2023-10-18T06:34:47.001Z,7.40
2023-10-18T06:37:33.100Z,7.40
2023-10-18T06:40:01.664Z,7.40
2023-10-18T06:42:28.831Z,7.40
2023-10-18T06:44:57.781Z,7.40
2023-10-18T06:47:32.626Z,7.30
2023-10-18T06:50:15.197Z,7.40
2023-10-18T06:52:53.915Z,7.40
2023-10-18T06:55:52.787Z,7.40
2023-10-18T06:58:23.158Z,7.40
2023-10-18T07:00:54.992Z,7.40
2023-10-18T07:03:52.119Z,7.40
2023-10-18T07:06:20.225Z,7.40
2023-10-18T07:08:51.674Z,7.40
2023-10-18T07:11:28.815Z,7.50
2023-10-18T07:14:05.915Z,7.50
2023-10-18T07:16:33.351Z,7.50
2023-10-18T07:19:19.632Z,7.50
2023-10-18T07:21:47.507Z,7.60
2023-10-18T07:24:14.729Z,7.60
2023-10-18T07:26:44.040Z,7.60
2023-10-18T07:29:11.594Z,7.70
2023-10-18T07:31:47.224Z,7.70
2023-10-18T07:34:27.503Z,7.70
2023-10-18T07:36:55.950Z,7.80
2023-10-18T07:39:26.603Z,7.80
2023-10-18T07:41:56.693Z,7.90
2023-10-18T07:44:24.658Z,7.90
2023-10-18T07:46:51.715Z,8.00
2023-10-18T07:49:20.129Z,8.10
2023-10-18T07:51:50.897Z,8.20
2023-10-18T07:54:19.170Z,8.30
2023-10-18T07:56:50.255Z,8.40
2023-10-18T07:59:33.018Z,8.50
2023-10-18T08:02:14.557Z,8.60
2023-10-18T08:04:44.331Z,8.70
2023-10-18T08:07:13.653Z,8.80
2023-10-18T08:09:42.281Z,8.80
2023-10-18T08:12:21.496Z,8.90
2023-10-18T08:14:51.298Z,8.90
2023-10-18T08:17:31.440Z,9.10
2023-10-18T08:20:17.845Z,9.30
2023-10-18T08:22:45.168Z,9.40
2023-10-18T08:25:23.370Z,9.60
2023-10-18T08:27:52.458Z,9.70
2023-10-18T08:30:39.965Z,9.70
2023-10-18T08:33:07.577Z,9.80
2023-10-18T08:35:35.346Z,9.80
2023-10-18T08:38:05.365Z,9.90
2023-10-18T08:40:35.911Z,10.00
2023-10-18T08:43:13.798Z,10.20
2023-10-18T08:45:48.767Z,10.30
2023-10-18T08:48:22.837Z,10.50
2023-10-18T08:50:50.934Z,10.80
2023-10-18T08:53:23.737Z,11.00
2023-10-18T08:55:54.345Z,11.00
2023-10-18T08:58:24.043Z,11.10
2023-10-18T09:00:56.702Z,11.10
2023-10-18T09:03:28.763Z,11.00
2023-10-18T09:06:05.790Z,11.00
2023-10-18T09:08:43.816Z,11.00
2023-10-18T09:11:23.277Z,11.00
2023-10-18T09:14:10.032Z,11.10
2023-10-18T09:16:41.019Z,11.10
2023-10-18T09:19:10.856Z,11.40
2023-10-18T09:21:51.493Z,11.50
2023-10-18T09:24:25.055Z,11.60
2023-10-18T09:26:52.442Z,11.70
2023-10-18T09:29:20.643Z,11.80
2023-10-18T09:32:04.129Z,11.90
2023-10-18T09:34:43.047Z,12.00
2023-10-18T09:37:13.133Z,12.10
2023-10-18T09:39:44.112Z,12.30
2023-10-18T09:42:14.478Z,12.50
2023-10-18T09:44:42.983Z,12.60
2023-10-18T09:47:11.808Z,12.70
2023-10-18T09:49:42.138Z,12.80
2023-10-18T09:52:13.205Z,12.90
2023-10-18T09:54:49.011Z,12.90
2023-10-18T09:57:25.178Z,12.90
2023-10-18T09:59:55.690Z,12.90
2023-10-18T10:02:25.996Z,12.70
2023-10-18T10:04:53.765Z,12.50
2023-10-18T10:07:41.052Z,12.40
2023-10-18T10:10:09.917Z,12.40
2023-10-18T10:12:37.565Z,12.30
2023-10-18T10:15:14.743Z,12.20
2023-10-18T10:17:48.624Z,12.20
2023-10-18T10:20:17.496Z,12.10
2023-10-18T10:22:46.645Z,12.00
2023-10-18T10:25:34.482Z,12.00
2023-10-18T10:28:16.481Z,12.00
2023-10-18T10:30:47.864Z,12.00
2023-10-18T10:33:16.384Z,11.90
2023-10-18T10:35:48.674Z,11.90
2023-10-18T10:38:23.349Z,11.90
2023-10-18T10:41:13.911Z,11.90
2023-10-18T10:44:12.481Z,11.90
2023-10-18T10:46:41.133Z,11.90
2023-10-18T10:49:49.220Z,11.90
2023-10-18T10:52:21.959Z,11.90
2023-10-18T10:54:52.943Z,11.90
2023-10-18T10:57:20.691Z,12.00
2023-10-18T10:59:56.999Z,12.10
2023-10-18T11:02:40.976Z,12.20
2023-10-18T11:05:17.544Z,12.20
2023-10-18T11:07:46.318Z,12.30
2023-10-18T11:10:17.448Z,12.30
2023-10-18T11:12:47.158Z,12.40
2023-10-18T11:15:20.541Z,12.40
2023-10-18T11:17:50.337Z,12.50
2023-10-18T11:20:20.985Z,12.60
2023-10-18T11:22:52.305Z,12.60
2023-10-18T11:25:31.525Z,12.60
2023-10-18T11:28:23.047Z,12.70
2023-10-18T11:30:52.134Z,12.70
2023-10-18T11:33:19.739Z,12.70
2023-10-18T11:35:49.946Z,12.70
2023-10-18T11:38:21.128Z,12.70
2023-10-18T11:40:52.101Z,12.70
2023-10-18T11:43:28.716Z,12.80
2023-10-18T11:46:09.477Z,12.80
2023-10-18T11:48:38.375Z,12.90
2023-10-18T11:51:07.668Z,12.90
2023-10-18T11:53:36.636Z,12.90
2023-10-18T11:56:11.671Z,12.90
2023-10-18T11:58:42.201Z,13.00
2023-10-18T12:01:32.930Z,13.00
2023-10-18T12:04:00.457Z,13.00
2023-10-18T12:06:28.671Z,13.10
2023-10-18T12:09:12.638Z,13.10
2023-10-18T12:11:39.960Z,13.20
2023-10-18T12:14:09.738Z,13.20
2023-10-18T12:16:37.493Z,13.20
2023-10-18T12:19:08.076Z,13.30
2023-10-18T12:21:35.272Z,13.40
2023-10-18T12:24:05.732Z,13.40
2023-10-18T12:26:35.691Z,13.40
2023-10-18T12:29:08.347Z,13.40
2023-10-18T12:31:41.428Z,13.50
2023-10-18T12:34:10.724Z,13.50
2023-10-18T12:36:40.611Z,13.60
2023-10-18T12:39:21.359Z,13.60
2023-10-18T12:41:59.079Z,13.50
2023-10-18T12:44:28.494Z,13.60
2023-10-18T12:46:56.088Z,13.50
2023-10-18T12:49:23.935Z,13.60
2023-10-18T12:52:01.978Z,13.60
2023-10-18T12:54:37.860Z,13.60
2023-10-18T12:57:11.991Z,13.70
2023-10-18T13:00:01.053Z,13.70
2023-10-18T13:03:03.814Z,13.80
2023-10-18T13:05:44.389Z,13.80
2023-10-18T13:08:24.097Z,13.90
2023-10-18T13:11:02.224Z,13.90
2023-10-18T13:13:31.391Z,13.90
2023-10-18T13:15:59.606Z,14.00
2023-10-18T13:18:27.177Z,14.00
2023-10-18T13:20:56.887Z,14.00
2023-10-18T13:23:29.066Z,14.10
2023-10-18T13:25:57.495Z,14.10
2023-10-18T13:28:35.154Z,14.20
2023-10-18T13:31:07.529Z,14.20
2023-10-18T13:33:35.051Z,14.20
2023-10-18T13:36:03.207Z,14.20
2023-10-18T13:38:30.755Z,14.20
2023-10-18T13:41:00.949Z,14.30
2023-10-18T13:43:29.254Z,14.20
2023-10-18T13:45:59.605Z,14.20
2023-10-18T13:48:26.867Z,14.20
2023-10-18T13:51:00.278Z,14.20
2023-10-18T13:53:28.040Z,14.20
2023-10-18T13:56:00.524Z,14.20
2023-10-18T13:58:30.845Z,14.20
2023-10-18T14:00:58.006Z,14.20
2023-10-18T14:03:25.693Z,14.20
2023-10-18T14:05:53.477Z,14.10
2023-10-18T14:08:23.447Z,14.10
2023-10-18T14:10:56.633Z,14.10
2023-10-18T14:13:25.876Z,14.10
2023-10-18T14:15:52.974Z,14.10
2023-10-18T14:18:20.561Z,14.10
2023-10-18T14:20:54.087Z,14.10
2023-10-18T14:23:27.990Z,14.10
2023-10-18T14:25:56.359Z,14.10
2023-10-18T14:28:25.344Z,14.10
2023-10-18T14:30:53.494Z,14.10
2023-10-18T14:33:31.609Z,14.20
2023-10-18T14:36:10.203Z,14.20
2023-10-18T14:38:38.587Z,14.20
2023-10-18T14:41:21.011Z,14.20
2023-10-18T14:43:57.961Z,14.10
2023-10-18T14:46:26.974Z,14.10
2023-10-18T14:49:01.564Z,14.10
2023-10-18T14:51:29.686Z,14.10
2023-10-18T14:53:56.832Z,14.10
2023-10-18T14:56:24.760Z,14.10
2023-10-18T14:58:56.383Z,14.00
2023-10-18T15:01:27.143Z,14.00
2023-10-18T15:03:54.417Z,14.00
2023-10-18T15:06:22.048Z,13.90
2023-10-18T15:08:56.456Z,14.00
2023-10-18T15:11:24.299Z,13.90
2023-10-18T15:13:52.086Z,13.90
2023-10-18T15:16:20.121Z,13.90
2023-10-18T15:18:50.157Z,13.80
2023-10-18T15:21:22.218Z,13.90
2023-10-18T15:23:49.343Z,13.90
2023-10-18T15:26:18.709Z,13.80
2023-10-18T15:28:48.977Z,13.80
2023-10-18T15:31:17.547Z,13.80
2023-10-18T15:33:49.917Z,13.70
2023-10-18T15:36:19.959Z,13.70
2023-10-18T15:38:50.177Z,13.70
2023-10-18T15:41:22.031Z,13.70
2023-10-18T15:43:51.190Z,13.60
2023-10-18T15:46:25.908Z,13.60
2023-10-18T15:48:55.491Z,13.60
2023-10-18T15:51:23.447Z,13.60
2023-10-18T15:53:57.133Z,13.60
2023-10-18T15:56:29.253Z,13.60
2023-10-18T15:58:57.740Z,13.50
2023-10-18T16:01:25.491Z,13.50
2023-10-18T16:03:54.985Z,13.50
2023-10-18T16:06:22.530Z,13.50
2023-10-18T16:08:50.158Z,13.40
2023-10-18T16:11:20.041Z,13.40
2023-10-18T16:13:47.814Z,13.40
2023-10-18T16:16:15.237Z,13.40
2023-10-18T16:18:45.904Z,13.40
2023-10-18T16:21:14.952Z,13.30
2023-10-18T16:23:43.112Z,13.30
2023-10-18T16:26:11.252Z,13.30
2023-10-18T16:28:38.814Z,13.20
2023-10-18T16:31:06.558Z,13.20
2023-10-18T16:33:33.821Z,13.20
2023-10-18T16:36:02.821Z,13.10
2023-10-18T16:38:33.741Z,13.20
2023-10-18T16:41:02.492Z,13.10
2023-10-18T16:43:29.994Z,13.10
2023-10-18T16:45:58.646Z,13.10
2023-10-18T16:48:25.778Z,13.00
2023-10-18T16:50:52.964Z,13.00
2023-10-18T16:53:20.149Z,13.00
2023-10-18T16:55:57.955Z,13.00
2023-10-18T16:58:26.901Z,13.00
2023-10-18T17:00:58.371Z,12.90
2023-10-18T17:03:26.816Z,13.00
2023-10-18T17:05:56.187Z,12.90
2023-10-18T17:08:23.781Z,12.90
2023-10-18T17:10:53.965Z,12.90
2023-10-18T17:13:26.283Z,12.90
2023-10-18T17:15:55.993Z,12.90
2023-10-18T17:18:23.794Z,12.90
2023-10-18T17:21:11.229Z,12.80
2023-10-18T17:23:41.072Z,12.80
2023-10-18T17:26:10.069Z,12.80
2023-10-18T17:28:43.294Z,12.80
2023-10-18T17:31:11.690Z,12.70
2023-10-18T17:33:38.811Z,12.70
2023-10-18T17:36:10.950Z,12.70
2023-10-18T17:38:39.611Z,12.70
2023-10-18T17:41:07.266Z,12.70
2023-10-18T17:43:34.733Z,12.70
2023-10-18T17:46:03.971Z,12.70
2023-10-18T17:48:31.561Z,12.70
2023-10-18T17:50:59.475Z,12.60
2023-10-18T17:53:27.010Z,12.60
2023-10-18T17:55:55.135Z,12.60
2023-10-18T17:58:22.163Z,12.60
2023-10-18T18:00:54.747Z,12.60
2023-10-18T18:03:24.146Z,12.60
2023-10-18T18:05:52.545Z,12.60
2023-10-18T18:08:27.041Z,12.60
2023-10-18T18:10:55.266Z,12.60
2023-10-18T18:13:26.647Z,12.50
2023-10-18T18:16:02.957Z,12.60
2023-10-18T18:18:33.806Z,12.50
2023-10-18T18:21:01.051Z,12.50
2023-10-18T18:23:31.454Z,12.50
2023-10-18T18:26:07.215Z,12.50
2023-10-18T18:28:34.869Z,12.50
2023-10-18T18:31:02.168Z,12.50
2023-10-18T18:33:30.733Z,12.50
2023-10-18T18:35:59.589Z,12.50
2023-10-18T18:38:26.629Z,12.50
2023-10-18T18:40:56.816Z,12.40
2023-10-18T18:43:25.864Z,12.40
2023-10-18T18:46:00.692Z,12.50
2023-10-18T18:48:28.090Z,12.40
2023-10-18T18:50:56.351Z,12.40
2023-10-18T18:53:26.257Z,12.40
2023-10-18T18:55:53.368Z,12.40
2023-10-18T18:58:20.440Z,12.40
2023-10-18T19:00:48.595Z,12.40
2023-10-18T19:03:17.812Z,12.40
2023-10-18T19:05:46.629Z,12.40
2023-10-18T19:08:16.084Z,12.40
2023-10-18T19:10:45.461Z,12.40
2023-10-18T19:13:16.309Z,12.40
2023-10-18T19:15:44.012Z,12.30
2023-10-18T19:18:15.160Z,12.40
2023-10-18T19:20:44.120Z,12.30
2023-10-18T19:23:11.758Z,12.30
2023-10-18T19:25:40.770Z,12.20
2023-10-18T19:28:09.155Z,12.20
2023-10-18T19:30:36.484Z,12.20
2023-10-18T19:33:03.945Z,12.10
2023-10-18T19:35:34.430Z,12.10
2023-10-18T19:38:03.484Z,12.00
2023-10-18T19:40:32.077Z,12.00
2023-10-18T19:43:02.299Z,11.90
2023-10-18T19:45:30.963Z,11.80
2023-10-18T19:47:59.461Z,11.80
2023-10-18T19:50:26.600Z,11.70
2023-10-18T19:52:55.693Z,11.70
2023-10-18T19:55:22.967Z,11.60
2023-10-18T19:57:50.389Z,11.60
2023-10-18T20:00:22.417Z,11.50
2023-10-18T20:02:51.270Z,11.50
2023-10-18T20:05:19.233Z,11.40
2023-10-18T20:07:46.258Z,11.40
2023-10-18T20:10:14.520Z,11.30
2023-10-18T20:12:42.032Z,11.20
2023-10-18T20:15:09.957Z,11.20
2023-10-18T20:17:37.275Z,11.10
2023-10-18T20:20:08.711Z,11.10
2023-10-18T20:22:36.913Z,11.10
2023-10-18T20:25:04.278Z,11.00
2023-10-18T20:27:31.288Z,11.00
2023-10-18T20:29:58.611Z,10.90
2023-10-18T20:32:25.815Z,11.00
2023-10-18T20:34:54.123Z,10.90
2023-10-18T20:37:22.675Z,10.90
2023-10-18T20:39:52.489Z,10.90
2023-10-18T20:42:21.674Z,10.90
2023-10-18T20:44:50.260Z,10.90
2023-10-18T20:47:17.927Z,10.90
2023-10-18T20:49:54.446Z,10.90
2023-10-18T20:52:27.928Z,10.90
2023-10-18T20:54:55.445Z,10.90
2023-10-18T20:57:23.032Z,10.90
2023-10-18T20:59:53.543Z,10.90
2023-10-18T21:02:25.693Z,10.90
2023-10-18T21:04:52.797Z,10.90
2023-10-18T21:07:26.744Z,10.90
2023-10-18T21:10:51.392Z,10.90
2023-10-18T21:13:23.040Z,10.90
2023-10-18T21:15:50.547Z,10.90
2023-10-18T21:18:21.442Z,10.90
2023-10-18T21:20:48.661Z,10.80
2023-10-18T21:23:16.300Z,10.80
2023-10-18T21:25:43.611Z,10.80
2023-10-18T21:28:12.296Z,10.80
2023-10-18T21:30:40.910Z,10.80
2023-10-18T21:33:08.442Z,10.80
2023-10-18T21:35:35.482Z,10.80
2023-10-18T21:38:03.303Z,10.80
2023-10-18T21:40:30.795Z,10.80
2023-10-18T21:42:58.026Z,10.70
2023-10-18T21:45:26.192Z,10.70
2023-10-18T21:47:55.389Z,10.70
2023-10-18T21:50:22.572Z,10.70
2023-10-18T21:52:53.578Z,10.70
2023-10-18T21:55:20.675Z,10.70
2023-10-18T21:57:48.026Z,10.70
2023-10-18T22:00:22.201Z,10.70
2023-10-18T22:02:49.840Z,10.70
2023-10-18T22:05:19.779Z,10.70
2023-10-18T22:07:49.180Z,10.70
2023-10-18T22:10:16.587Z,10.70
2023-10-18T22:12:49.549Z,10.70
2023-10-18T22:15:20.321Z,10.80
2023-10-18T22:17:47.840Z,10.70
2023-10-18T22:20:24.780Z,10.80
2023-10-18T22:22:53.273Z,10.80
2023-10-18T22:25:24.439Z,10.80
2023-10-18T22:27:57.121Z,10.80
2023-10-18T22:30:31.974Z,10.80
2023-10-18T22:32:59.317Z,10.80
2023-10-18T22:35:26.760Z,10.80
2023-10-18T22:38:06.589Z,10.90
2023-10-18T22:40:35.958Z,10.90
2023-10-18T22:43:04.953Z,10.90
2023-10-18T22:45:32.553Z,10.90
2023-10-18T22:48:20.131Z,10.90
2023-10-18T22:50:56.029Z,10.90
2023-10-18T22:53:33.601Z,10.90
2023-10-18T22:56:05.894Z,11.00
2023-10-18T22:58:33.219Z,11.00
2023-10-18T23:01:08.678Z,11.00
2023-10-18T23:03:37.481Z,11.00
2023-10-18T23:06:12.038Z,11.00
2023-10-18T23:08:40.780Z,11.10
2023-10-18T23:11:27.080Z,11.10
2023-10-18T23:13:58.522Z,11.10
2023-10-18T23:16:38.447Z,11.20
2023-10-18T23:19:11.829Z,11.20
2023-10-18T23:21:47.023Z,11.20
2023-10-18T23:24:18.882Z,11.20
2023-10-18T23:27:04.448Z,11.20
2023-10-18T23:29:47.285Z,11.30
2023-10-18T23:32:30.302Z,11.30
2023-10-18T23:35:18.470Z,11.30
2023-10-18T23:37:48.549Z,11.30
2023-10-18T23:40:23.001Z,11.40
2023-10-18T23:42:52.944Z,11.40
2023-10-18T23:45:22.575Z,11.40
2023-10-18T23:47:49.593Z,11.40
2023-10-18T23:50:30.933Z,11.40
2023-10-18T23:53:16.157Z,11.40
2023-10-18T23:55:55.169Z,11.40
2023-10-18T23:58:32.274Z,11.50
